sensor_id;sensor_type;location;lat;lon;timestamp;P1;durP1;ratioP1;P2;durP2;ratioP2
6255;SDS011;3161;48.794;9.784;2023-07-02T00:00:04;1.80;;;1.60;;
6255;SDS011;3161;48.794;9.784;2023-07-02T00:02:33;2.33;;;2.00;;
6255;SDS011;3161;48.794;9.784;2023-07-02T00:05:02;4.03;;;2.07;;
6255;SDS011;3161;48.794;9.784;2023-07-02T00:07:30;3.17;;;1.90;;
6255;SDS011;3161;48.794;9.784;2023-07-02T00:09:58;4.90;;;2.10;;
6255;SDS011;3161;48.794;9.784;2023-07-02T00:12:26;4.53;;;2.00;;
6255;SDS011;3161;48.794;9.784;2023-07-02T00:14:53;2.53;;;2.10;;
6255;SDS011;3161;48.794;9.784;2023-07-02T00:17:21;2.50;;;2.20;;
6255;SDS011;3161;48.794;9.784;2023-07-02T00:22:37;3.00;;;2.00;;
6255;SDS011;3161;48.794;9.784;2023-07-02T00:25:07;2.27;;;2.07;;
6255;SDS011;3161;48.794;9.784;2023-07-02T00:27:35;1.90;;;1.80;;
6255;SDS011;3161;48.794;9.784;2023-07-02T00:30:04;2.93;;;1.93;;
6255;SDS011;3161;48.794;9.784;2023-07-02T00:32:32;5.13;;;1.93;;
6255;SDS011;3161;48.794;9.784;2023-07-02T00:35:00;2.13;;;1.97;;
6255;SDS011;3161;48.794;9.784;2023-07-02T00:37:27;2.23;;;1.90;;
6255;SDS011;3161;48.794;9.784;2023-07-02T00:39:54;3.27;;;2.30;;
6255;SDS011;3161;48.794;9.784;2023-07-02T00:42:22;1.77;;;1.67;;
6255;SDS011;3161;48.794;9.784;2023-07-02T00:44:51;6.13;;;2.20;;
6255;SDS011;3161;48.794;9.784;2023-07-02T00:47:20;4.37;;;2.20;;
6255;SDS011;3161;48.794;9.784;2023-07-02T00:49:48;5.73;;;2.33;;
6255;SDS011;3161;48.794;9.784;2023-07-02T00:52:16;5.97;;;2.57;;
6255;SDS011;3161;48.794;9.784;2023-07-02T00:54:46;3.10;;;2.33;;
6255;SDS011;3161;48.794;9.784;2023-07-02T00:57:13;3.43;;;2.47;;
6255;SDS011;3161;48.794;9.784;2023-07-02T00:59:41;3.13;;;2.20;;
6255;SDS011;3161;48.794;9.784;2023-07-02T01:02:09;4.07;;;2.43;;
6255;SDS011;3161;48.794;9.784;2023-07-02T01:04:38;5.30;;;3.00;;
6255;SDS011;3161;48.794;9.784;2023-07-02T01:07:06;3.27;;;2.87;;
6255;SDS011;3161;48.794;9.784;2023-07-02T01:09:35;2.57;;;2.37;;
6255;SDS011;3161;48.794;9.784;2023-07-02T01:12:03;2.80;;;2.37;;
6255;SDS011;3161;48.794;9.784;2023-07-02T01:14:34;4.87;;;2.33;;
6255;SDS011;3161;48.794;9.784;2023-07-02T01:17:05;6.10;;;2.33;;
6255;SDS011;3161;48.794;9.784;2023-07-02T01:19:46;8.50;;;2.10;;
6255;SDS011;3161;48.794;9.784;2023-07-02T01:22:20;3.83;;;2.80;;
6255;SDS011;3161;48.794;9.784;2023-07-02T01:24:49;4.57;;;2.50;;
6255;SDS011;3161;48.794;9.784;2023-07-02T01:27:17;2.97;;;1.93;;
6255;SDS011;3161;48.794;9.784;2023-07-02T01:29:44;2.37;;;2.03;;
6255;SDS011;3161;48.794;9.784;2023-07-02T01:32:13;2.93;;;2.10;;
6255;SDS011;3161;48.794;9.784;2023-07-02T01:37:27;2.50;;;2.30;;
6255;SDS011;3161;48.794;9.784;2023-07-02T01:39:57;4.20;;;2.60;;
6255;SDS011;3161;48.794;9.784;2023-07-02T01:42:24;2.30;;;2.10;;
6255;SDS011;3161;48.794;9.784;2023-07-02T01:44:52;3.10;;;2.07;;
6255;SDS011;3161;48.794;9.784;2023-07-02T01:47:19;2.90;;;2.10;;
6255;SDS011;3161;48.794;9.784;2023-07-02T01:49:47;3.00;;;2.70;;
6255;SDS011;3161;48.794;9.784;2023-07-02T01:52:14;3.53;;;2.40;;
6255;SDS011;3161;48.794;9.784;2023-07-02T01:54:42;4.53;;;2.83;;
6255;SDS011;3161;48.794;9.784;2023-07-02T01:57:10;2.97;;;1.90;;
6255;SDS011;3161;48.794;9.784;2023-07-02T01:59:38;2.63;;;2.30;;
6255;SDS011;3161;48.794;9.784;2023-07-02T02:02:05;3.27;;;2.20;;
6255;SDS011;3161;48.794;9.784;2023-07-02T02:04:33;3.03;;;2.73;;
6255;SDS011;3161;48.794;9.784;2023-07-02T02:07:00;2.87;;;2.57;;
6255;SDS011;3161;48.794;9.784;2023-07-02T02:09:29;2.90;;;2.60;;
6255;SDS011;3161;48.794;9.784;2023-07-02T02:11:58;3.83;;;2.40;;
6255;SDS011;3161;48.794;9.784;2023-07-02T02:14:25;2.70;;;2.23;;
6255;SDS011;3161;48.794;9.784;2023-07-02T02:16:53;3.70;;;2.20;;
6255;SDS011;3161;48.794;9.784;2023-07-02T02:19:20;4.63;;;2.30;;
6255;SDS011;3161;48.794;9.784;2023-07-02T02:21:48;5.97;;;2.00;;
6255;SDS011;3161;48.794;9.784;2023-07-02T02:24:15;2.33;;;2.20;;
6255;SDS011;3161;48.794;9.784;2023-07-02T02:26:43;2.40;;;2.00;;
6255;SDS011;3161;48.794;9.784;2023-07-02T02:29:10;6.00;;;2.30;;
6255;SDS011;3161;48.794;9.784;2023-07-02T02:31:38;3.13;;;2.00;;
6255;SDS011;3161;48.794;9.784;2023-07-02T02:34:05;2.10;;;2.00;;
6255;SDS011;3161;48.794;9.784;2023-07-02T02:36:33;2.40;;;2.20;;
6255;SDS011;3161;48.794;9.784;2023-07-02T02:39:01;2.00;;;1.90;;
6255;SDS011;3161;48.794;9.784;2023-07-02T02:41:28;3.23;;;1.97;;
6255;SDS011;3161;48.794;9.784;2023-07-02T02:43:56;4.17;;;2.37;;
6255;SDS011;3161;48.794;9.784;2023-07-02T02:46:23;2.40;;;2.20;;
6255;SDS011;3161;48.794;9.784;2023-07-02T02:48:51;2.27;;;2.07;;
6255;SDS011;3161;48.794;9.784;2023-07-02T02:51:18;3.80;;;1.93;;
6255;SDS011;3161;48.794;9.784;2023-07-02T02:53:46;2.20;;;1.97;;
6255;SDS011;3161;48.794;9.784;2023-07-02T02:56:14;3.50;;;1.80;;
6255;SDS011;3161;48.794;9.784;2023-07-02T02:58:42;3.63;;;1.97;;
6255;SDS011;3161;48.794;9.784;2023-07-02T03:01:10;4.97;;;1.70;;
6255;SDS011;3161;48.794;9.784;2023-07-02T03:03:38;7.53;;;2.50;;
6255;SDS011;3161;48.794;9.784;2023-07-02T03:06:08;4.10;;;2.30;;
6255;SDS011;3161;48.794;9.784;2023-07-02T03:08:35;2.27;;;2.07;;
6255;SDS011;3161;48.794;9.784;2023-07-02T03:11:03;4.27;;;2.37;;
6255;SDS011;3161;48.794;9.784;2023-07-02T03:13:30;4.20;;;2.27;;
6255;SDS011;3161;48.794;9.784;2023-07-02T03:15:58;2.97;;;2.20;;
6255;SDS011;3161;48.794;9.784;2023-07-02T03:18:26;2.03;;;1.90;;
6255;SDS011;3161;48.794;9.784;2023-07-02T03:20:53;1.97;;;1.80;;
6255;SDS011;3161;48.794;9.784;2023-07-02T03:23:21;2.17;;;1.97;;
6255;SDS011;3161;48.794;9.784;2023-07-02T03:25:48;4.60;;;2.40;;
6255;SDS011;3161;48.794;9.784;2023-07-02T03:28:16;5.63;;;1.90;;
6255;SDS011;3161;48.794;9.784;2023-07-02T03:30:43;3.10;;;2.07;;
6255;SDS011;3161;48.794;9.784;2023-07-02T03:33:11;2.33;;;2.17;;
6255;SDS011;3161;48.794;9.784;2023-07-02T03:35:38;2.13;;;2.03;;
6255;SDS011;3161;48.794;9.784;2023-07-02T03:38:06;6.20;;;2.17;;
6255;SDS011;3161;48.794;9.784;2023-07-02T03:40:34;3.63;;;2.07;;
6255;SDS011;3161;48.794;9.784;2023-07-02T03:43:01;3.83;;;2.33;;
6255;SDS011;3161;48.794;9.784;2023-07-02T03:45:29;2.47;;;2.27;;
6255;SDS011;3161;48.794;9.784;2023-07-02T03:47:56;6.00;;;2.93;;
6255;SDS011;3161;48.794;9.784;2023-07-02T03:50:24;3.87;;;2.27;;
6255;SDS011;3161;48.794;9.784;2023-07-02T03:52:51;4.83;;;2.67;;
6255;SDS011;3161;48.794;9.784;2023-07-02T03:55:19;4.80;;;2.57;;
6255;SDS011;3161;48.794;9.784;2023-07-02T03:57:46;2.97;;;2.47;;
6255;SDS011;3161;48.794;9.784;2023-07-02T04:00:14;2.90;;;2.57;;
6255;SDS011;3161;48.794;9.784;2023-07-02T04:02:42;4.13;;;2.67;;
6255;SDS011;3161;48.794;9.784;2023-07-02T04:05:10;5.17;;;3.13;;
6255;SDS011;3161;48.794;9.784;2023-07-02T04:07:37;3.80;;;2.67;;
6255;SDS011;3161;48.794;9.784;2023-07-02T04:10:05;2.70;;;2.50;;
6255;SDS011;3161;48.794;9.784;2023-07-02T04:12:34;4.90;;;2.80;;
6255;SDS011;3161;48.794;9.784;2023-07-02T04:15:01;4.33;;;2.63;;
6255;SDS011;3161;48.794;9.784;2023-07-02T04:17:29;6.77;;;2.30;;
6255;SDS011;3161;48.794;9.784;2023-07-02T04:19:56;4.63;;;2.20;;
6255;SDS011;3161;48.794;9.784;2023-07-02T04:22:26;3.20;;;2.03;;
6255;SDS011;3161;48.794;9.784;2023-07-02T04:24:53;3.03;;;2.27;;
6255;SDS011;3161;48.794;9.784;2023-07-02T04:27:21;2.23;;;2.00;;
6255;SDS011;3161;48.794;9.784;2023-07-02T04:29:48;4.27;;;2.47;;
6255;SDS011;3161;48.794;9.784;2023-07-02T04:32:16;6.23;;;2.87;;
6255;SDS011;3161;48.794;9.784;2023-07-02T04:34:44;5.50;;;3.20;;
6255;SDS011;3161;48.794;9.784;2023-07-02T04:37:11;4.00;;;2.50;;
6255;SDS011;3161;48.794;9.784;2023-07-02T04:39:40;5.07;;;2.47;;
6255;SDS011;3161;48.794;9.784;2023-07-02T04:42:08;6.57;;;3.10;;
6255;SDS011;3161;48.794;9.784;2023-07-02T04:44:35;6.50;;;4.97;;
6255;SDS011;3161;48.794;9.784;2023-07-02T04:47:03;6.97;;;4.60;;
6255;SDS011;3161;48.794;9.784;2023-07-02T04:49:31;5.37;;;3.70;;
6255;SDS011;3161;48.794;9.784;2023-07-02T04:51:58;5.33;;;3.17;;
6255;SDS011;3161;48.794;9.784;2023-07-02T04:54:26;7.30;;;3.80;;
6255;SDS011;3161;48.794;9.784;2023-07-02T04:56:53;4.90;;;3.40;;
6255;SDS011;3161;48.794;9.784;2023-07-02T04:59:21;5.60;;;4.13;;
6255;SDS011;3161;48.794;9.784;2023-07-02T05:01:48;11.20;;;4.63;;
6255;SDS011;3161;48.794;9.784;2023-07-02T05:04:16;6.30;;;4.20;;
6255;SDS011;3161;48.794;9.784;2023-07-02T05:06:43;7.60;;;4.97;;
6255;SDS011;3161;48.794;9.784;2023-07-02T05:09:11;8.93;;;4.77;;
6255;SDS011;3161;48.794;9.784;2023-07-02T05:11:39;6.97;;;4.57;;
6255;SDS011;3161;48.794;9.784;2023-07-02T05:14:06;11.30;;;5.10;;
6255;SDS011;3161;48.794;9.784;2023-07-02T05:16:33;12.33;;;5.27;;
6255;SDS011;3161;48.794;9.784;2023-07-02T05:19:01;10.30;;;5.30;;
6255;SDS011;3161;48.794;9.784;2023-07-02T05:21:29;10.70;;;6.10;;
6255;SDS011;3161;48.794;9.784;2023-07-02T05:23:56;12.43;;;5.60;;
6255;SDS011;3161;48.794;9.784;2023-07-02T05:26:24;11.53;;;6.33;;
6255;SDS011;3161;48.794;9.784;2023-07-02T05:28:52;10.07;;;5.80;;
6255;SDS011;3161;48.794;9.784;2023-07-02T05:31:20;11.03;;;6.20;;
6255;SDS011;3161;48.794;9.784;2023-07-02T05:33:47;13.47;;;6.10;;
6255;SDS011;3161;48.794;9.784;2023-07-02T05:36:15;11.97;;;5.73;;
6255;SDS011;3161;48.794;9.784;2023-07-02T05:38:43;14.57;;;5.97;;
6255;SDS011;3161;48.794;9.784;2023-07-02T05:41:10;11.87;;;5.77;;
6255;SDS011;3161;48.794;9.784;2023-07-02T05:43:38;5.37;;;4.63;;
6255;SDS011;3161;48.794;9.784;2023-07-02T05:46:05;7.43;;;5.20;;
6255;SDS011;3161;48.794;9.784;2023-07-02T05:48:33;10.90;;;5.17;;
6255;SDS011;3161;48.794;9.784;2023-07-02T05:51:00;8.70;;;5.00;;
6255;SDS011;3161;48.794;9.784;2023-07-02T05:53:28;10.63;;;4.93;;
6255;SDS011;3161;48.794;9.784;2023-07-02T05:55:56;11.17;;;5.33;;
6255;SDS011;3161;48.794;9.784;2023-07-02T05:58:23;7.97;;;4.80;;
6255;SDS011;3161;48.794;9.784;2023-07-02T06:00:51;12.97;;;5.27;;
6255;SDS011;3161;48.794;9.784;2023-07-02T06:03:18;7.47;;;4.83;;
6255;SDS011;3161;48.794;9.784;2023-07-02T06:05:47;10.13;;;4.80;;
6255;SDS011;3161;48.794;9.784;2023-07-02T06:08:15;8.60;;;5.23;;
6255;SDS011;3161;48.794;9.784;2023-07-02T06:10:45;14.33;;;5.47;;
6255;SDS011;3161;48.794;9.784;2023-07-02T06:13:13;11.80;;;5.03;;
6255;SDS011;3161;48.794;9.784;2023-07-02T06:15:41;9.47;;;5.70;;
6255;SDS011;3161;48.794;9.784;2023-07-02T06:18:08;11.43;;;5.13;;
6255;SDS011;3161;48.794;9.784;2023-07-02T06:20:36;7.03;;;5.10;;
6255;SDS011;3161;48.794;9.784;2023-07-02T06:23:04;6.77;;;4.03;;
6255;SDS011;3161;48.794;9.784;2023-07-02T06:25:31;9.53;;;4.60;;
6255;SDS011;3161;48.794;9.784;2023-07-02T06:27:59;9.03;;;4.83;;
6255;SDS011;3161;48.794;9.784;2023-07-02T06:30:27;8.37;;;5.03;;
6255;SDS011;3161;48.794;9.784;2023-07-02T06:32:54;8.80;;;4.33;;
6255;SDS011;3161;48.794;9.784;2023-07-02T06:35:22;6.53;;;4.00;;
6255;SDS011;3161;48.794;9.784;2023-07-02T06:37:50;8.23;;;4.03;;
6255;SDS011;3161;48.794;9.784;2023-07-02T06:40:18;6.80;;;3.77;;
6255;SDS011;3161;48.794;9.784;2023-07-02T06:42:48;10.07;;;3.70;;
6255;SDS011;3161;48.794;9.784;2023-07-02T06:45:15;7.13;;;3.73;;
6255;SDS011;3161;48.794;9.784;2023-07-02T06:47:43;8.57;;;3.63;;
6255;SDS011;3161;48.794;9.784;2023-07-02T06:50:11;11.40;;;4.30;;
6255;SDS011;3161;48.794;9.784;2023-07-02T06:52:38;5.87;;;3.63;;
6255;SDS011;3161;48.794;9.784;2023-07-02T06:55:06;7.77;;;4.00;;
6255;SDS011;3161;48.794;9.784;2023-07-02T06:57:42;8.03;;;4.13;;
6255;SDS011;3161;48.794;9.784;2023-07-02T07:00:12;9.83;;;4.00;;
6255;SDS011;3161;48.794;9.784;2023-07-02T07:02:41;6.57;;;4.40;;
6255;SDS011;3161;48.794;9.784;2023-07-02T07:05:08;6.53;;;3.80;;
6255;SDS011;3161;48.794;9.784;2023-07-02T07:07:36;7.00;;;3.97;;
6255;SDS011;3161;48.794;9.784;2023-07-02T07:10:04;10.50;;;4.57;;
6255;SDS011;3161;48.794;9.784;2023-07-02T07:12:32;8.97;;;4.60;;
6255;SDS011;3161;48.794;9.784;2023-07-02T07:15:00;8.83;;;4.77;;
6255;SDS011;3161;48.794;9.784;2023-07-02T07:17:28;8.07;;;5.10;;
6255;SDS011;3161;48.794;9.784;2023-07-02T07:19:55;11.83;;;5.17;;
6255;SDS011;3161;48.794;9.784;2023-07-02T07:22:23;9.63;;;5.23;;
6255;SDS011;3161;48.794;9.784;2023-07-02T07:24:50;15.70;;;5.60;;
6255;SDS011;3161;48.794;9.784;2023-07-02T07:27:18;13.80;;;5.90;;
6255;SDS011;3161;48.794;9.784;2023-07-02T07:29:46;10.23;;;5.63;;
6255;SDS011;3161;48.794;9.784;2023-07-02T07:32:13;12.03;;;6.23;;
6255;SDS011;3161;48.794;9.784;2023-07-02T07:34:42;13.70;;;6.83;;
6255;SDS011;3161;48.794;9.784;2023-07-02T07:37:10;11.83;;;5.97;;
6255;SDS011;3161;48.794;9.784;2023-07-02T07:39:37;9.77;;;5.77;;
6255;SDS011;3161;48.794;9.784;2023-07-02T07:42:05;12.67;;;7.03;;
6255;SDS011;3161;48.794;9.784;2023-07-02T07:44:33;17.30;;;6.97;;
6255;SDS011;3161;48.794;9.784;2023-07-02T07:47:00;10.73;;;6.37;;
6255;SDS011;3161;48.794;9.784;2023-07-02T07:49:28;12.87;;;6.90;;
6255;SDS011;3161;48.794;9.784;2023-07-02T07:51:56;13.87;;;7.90;;
6255;SDS011;3161;48.794;9.784;2023-07-02T07:54:23;15.73;;;7.47;;
6255;SDS011;3161;48.794;9.784;2023-07-02T07:56:51;15.70;;;7.40;;
6255;SDS011;3161;48.794;9.784;2023-07-02T07:59:18;15.30;;;7.23;;
6255;SDS011;3161;48.794;9.784;2023-07-02T08:01:46;16.40;;;7.63;;
6255;SDS011;3161;48.794;9.784;2023-07-02T08:04:14;14.70;;;7.63;;
6255;SDS011;3161;48.794;9.784;2023-07-02T08:06:42;13.70;;;7.40;;
6255;SDS011;3161;48.794;9.784;2023-07-02T08:09:10;14.33;;;7.60;;
6255;SDS011;3161;48.794;9.784;2023-07-02T08:11:37;20.60;;;8.27;;
6255;SDS011;3161;48.794;9.784;2023-07-02T08:14:05;15.57;;;7.33;;
6255;SDS011;3161;48.794;9.784;2023-07-02T08:16:32;12.67;;;7.53;;
6255;SDS011;3161;48.794;9.784;2023-07-02T08:19:00;13.17;;;7.67;;
6255;SDS011;3161;48.794;9.784;2023-07-02T08:21:28;16.70;;;8.63;;
6255;SDS011;3161;48.794;9.784;2023-07-02T08:23:56;13.87;;;7.33;;
6255;SDS011;3161;48.794;9.784;2023-07-02T08:26:24;17.43;;;8.43;;
6255;SDS011;3161;48.794;9.784;2023-07-02T08:28:51;19.93;;;8.47;;
6255;SDS011;3161;48.794;9.784;2023-07-02T08:31:19;19.33;;;7.57;;
6255;SDS011;3161;48.794;9.784;2023-07-02T08:33:46;15.67;;;7.73;;
6255;SDS011;3161;48.794;9.784;2023-07-02T08:36:15;14.73;;;8.30;;
6255;SDS011;3161;48.794;9.784;2023-07-02T08:38:42;13.63;;;7.07;;
6255;SDS011;3161;48.794;9.784;2023-07-02T08:41:11;10.93;;;8.03;;
6255;SDS011;3161;48.794;9.784;2023-07-02T08:43:39;14.87;;;7.53;;
6255;SDS011;3161;48.794;9.784;2023-07-02T08:46:07;12.70;;;7.20;;
6255;SDS011;3161;48.794;9.784;2023-07-02T08:48:35;14.50;;;7.83;;
6255;SDS011;3161;48.794;9.784;2023-07-02T08:51:03;15.90;;;8.60;;
6255;SDS011;3161;48.794;9.784;2023-07-02T08:53:31;16.10;;;8.53;;
6255;SDS011;3161;48.794;9.784;2023-07-02T08:56:04;21.30;;;8.60;;
6255;SDS011;3161;48.794;9.784;2023-07-02T08:58:29;16.20;;;8.27;;
6255;SDS011;3161;48.794;9.784;2023-07-02T09:01:09;16.13;;;9.00;;
6255;SDS011;3161;48.794;9.784;2023-07-02T09:03:38;14.50;;;9.13;;
6255;SDS011;3161;48.794;9.784;2023-07-02T09:06:07;22.23;;;9.23;;
6255;SDS011;3161;48.794;9.784;2023-07-02T09:08:36;16.77;;;8.73;;
6255;SDS011;3161;48.794;9.784;2023-07-02T09:11:14;15.57;;;9.17;;
6255;SDS011;3161;48.794;9.784;2023-07-02T09:13:46;19.53;;;9.47;;
6255;SDS011;3161;48.794;9.784;2023-07-02T09:16:28;18.10;;;10.67;;
6255;SDS011;3161;48.794;9.784;2023-07-02T09:19:05;18.50;;;10.07;;
6255;SDS011;3161;48.794;9.784;2023-07-02T09:21:47;16.50;;;9.50;;
6255;SDS011;3161;48.794;9.784;2023-07-02T09:24:19;15.83;;;9.30;;
6255;SDS011;3161;48.794;9.784;2023-07-02T09:26:49;18.97;;;10.10;;
6255;SDS011;3161;48.794;9.784;2023-07-02T09:29:25;17.83;;;9.97;;
6255;SDS011;3161;48.794;9.784;2023-07-02T09:32:02;15.17;;;9.43;;
6255;SDS011;3161;48.794;9.784;2023-07-02T09:34:30;20.30;;;10.48;;
6255;SDS011;3161;48.794;9.784;2023-07-02T09:36:59;21.87;;;10.20;;
6255;SDS011;3161;48.794;9.784;2023-07-02T09:39:27;15.07;;;9.37;;
6255;SDS011;3161;48.794;9.784;2023-07-02T09:41:57;15.30;;;10.23;;
6255;SDS011;3161;48.794;9.784;2023-07-02T09:44:30;17.25;;;10.20;;
6255;SDS011;3161;48.794;9.784;2023-07-02T09:47:06;22.27;;;10.78;;
6255;SDS011;3161;48.794;9.784;2023-07-02T09:49:35;19.62;;;10.05;;
6255;SDS011;3161;48.794;9.784;2023-07-02T09:52:13;19.20;;;9.75;;
6255;SDS011;3161;48.794;9.784;2023-07-02T09:54:37;19.20;;;10.43;;
6255;SDS011;3161;48.794;9.784;2023-07-02T09:57:05;19.63;;;10.50;;
6255;SDS011;3161;48.794;9.784;2023-07-02T09:59:33;16.40;;;8.70;;
6255;SDS011;3161;48.794;9.784;2023-07-02T10:02:01;14.93;;;9.18;;
6255;SDS011;3161;48.794;9.784;2023-07-02T10:04:38;16.75;;;9.55;;
6255;SDS011;3161;48.794;9.784;2023-07-02T10:07:07;15.72;;;9.43;;
6255;SDS011;3161;48.794;9.784;2023-07-02T10:09:43;18.32;;;9.45;;
6255;SDS011;3161;48.794;9.784;2023-07-02T10:12:19;15.05;;;9.35;;
6255;SDS011;3161;48.794;9.784;2023-07-02T10:14:48;16.00;;;8.78;;
6255;SDS011;3161;48.794;9.784;2023-07-02T10:17:34;15.00;;;8.88;;
6255;SDS011;3161;48.794;9.784;2023-07-02T10:20:03;12.55;;;8.78;;
6255;SDS011;3161;48.794;9.784;2023-07-02T10:22:46;11.78;;;8.08;;
6255;SDS011;3161;48.794;9.784;2023-07-02T10:25:26;14.68;;;8.28;;
6255;SDS011;3161;48.794;9.784;2023-07-02T10:27:55;14.90;;;8.88;;
6255;SDS011;3161;48.794;9.784;2023-07-02T10:30:35;18.62;;;9.30;;
6255;SDS011;3161;48.794;9.784;2023-07-02T10:33:14;15.13;;;8.48;;
6255;SDS011;3161;48.794;9.784;2023-07-02T10:35:45;14.28;;;7.97;;
6255;SDS011;3161;48.794;9.784;2023-07-02T10:38:19;14.03;;;8.90;;
6255;SDS011;3161;48.794;9.784;2023-07-02T10:40:45;14.98;;;8.40;;
6255;SDS011;3161;48.794;9.784;2023-07-02T10:43:13;15.23;;;8.15;;
6255;SDS011;3161;48.794;9.784;2023-07-02T10:45:43;25.55;;;8.63;;
6255;SDS011;3161;48.794;9.784;2023-07-02T10:48:10;16.00;;;8.25;;
6255;SDS011;3161;48.794;9.784;2023-07-02T10:50:37;18.00;;;8.78;;
6255;SDS011;3161;48.794;9.784;2023-07-02T10:53:05;13.28;;;9.10;;
6255;SDS011;3161;48.794;9.784;2023-07-02T10:55:33;14.73;;;8.83;;
6255;SDS011;3161;48.794;9.784;2023-07-02T10:58:04;14.73;;;8.73;;
6255;SDS011;3161;48.794;9.784;2023-07-02T11:00:45;14.07;;;9.00;;
6255;SDS011;3161;48.794;9.784;2023-07-02T11:03:18;15.75;;;8.45;;
6255;SDS011;3161;48.794;9.784;2023-07-02T11:05:47;13.85;;;7.78;;
6255;SDS011;3161;48.794;9.784;2023-07-02T11:08:15;16.52;;;8.53;;
6255;SDS011;3161;48.794;9.784;2023-07-02T11:10:43;13.78;;;8.70;;
6255;SDS011;3161;48.794;9.784;2023-07-02T11:13:14;15.83;;;9.68;;
6255;SDS011;3161;48.794;9.784;2023-07-02T11:15:43;15.43;;;9.03;;
6255;SDS011;3161;48.794;9.784;2023-07-02T11:18:14;15.10;;;9.30;;
6255;SDS011;3161;48.794;9.784;2023-07-02T11:20:45;13.98;;;9.03;;
6255;SDS011;3161;48.794;9.784;2023-07-02T11:23:25;15.05;;;9.28;;
6255;SDS011;3161;48.794;9.784;2023-07-02T11:28:26;16.82;;;8.70;;
6255;SDS011;3161;48.794;9.784;2023-07-02T11:30:54;23.87;;;8.83;;
6255;SDS011;3161;48.794;9.784;2023-07-02T11:33:40;14.23;;;8.50;;
6255;SDS011;3161;48.794;9.784;2023-07-02T11:36:05;16.57;;;9.13;;
6255;SDS011;3161;48.794;9.784;2023-07-02T11:38:34;14.80;;;8.90;;
6255;SDS011;3161;48.794;9.784;2023-07-02T11:41:03;13.98;;;8.75;;
6255;SDS011;3161;48.794;9.784;2023-07-02T11:43:31;14.90;;;9.28;;
6255;SDS011;3161;48.794;9.784;2023-07-02T11:46:00;16.62;;;9.80;;
6255;SDS011;3161;48.794;9.784;2023-07-02T11:48:27;17.20;;;9.58;;
6255;SDS011;3161;48.794;9.784;2023-07-02T11:50:55;13.20;;;9.00;;
6255;SDS011;3161;48.794;9.784;2023-07-02T11:53:22;16.87;;;9.38;;
6255;SDS011;3161;48.794;9.784;2023-07-02T11:55:50;14.65;;;9.78;;
6255;SDS011;3161;48.794;9.784;2023-07-02T11:58:18;15.78;;;9.40;;
6255;SDS011;3161;48.794;9.784;2023-07-02T12:00:45;15.70;;;9.50;;
6255;SDS011;3161;48.794;9.784;2023-07-02T12:03:13;22.13;;;10.38;;
6255;SDS011;3161;48.794;9.784;2023-07-02T12:05:40;16.62;;;9.40;;
6255;SDS011;3161;48.794;9.784;2023-07-02T12:08:08;18.37;;;10.05;;
6255;SDS011;3161;48.794;9.784;2023-07-02T12:10:35;17.87;;;10.18;;
6255;SDS011;3161;48.794;9.784;2023-07-02T12:13:03;16.80;;;10.55;;
6255;SDS011;3161;48.794;9.784;2023-07-02T12:15:30;16.02;;;9.25;;
6255;SDS011;3161;48.794;9.784;2023-07-02T12:17:58;15.90;;;10.10;;
6255;SDS011;3161;48.794;9.784;2023-07-02T12:20:25;17.32;;;10.28;;
6255;SDS011;3161;48.794;9.784;2023-07-02T12:22:53;15.30;;;10.03;;
6255;SDS011;3161;48.794;9.784;2023-07-02T12:25:20;16.40;;;9.93;;
6255;SDS011;3161;48.794;9.784;2023-07-02T12:27:48;16.10;;;9.28;;
6255;SDS011;3161;48.794;9.784;2023-07-02T12:30:15;15.70;;;10.35;;
6255;SDS011;3161;48.794;9.784;2023-07-02T12:32:44;17.32;;;9.85;;
6255;SDS011;3161;48.794;9.784;2023-07-02T12:35:12;16.70;;;9.85;;
6255;SDS011;3161;48.794;9.784;2023-07-02T12:37:43;15.13;;;9.25;;
6255;SDS011;3161;48.794;9.784;2023-07-02T12:40:12;13.18;;;9.58;;
6255;SDS011;3161;48.794;9.784;2023-07-02T12:42:41;11.15;;;8.53;;
6255;SDS011;3161;48.794;9.784;2023-07-02T12:45:09;17.48;;;10.20;;
6255;SDS011;3161;48.794;9.784;2023-07-02T12:47:38;17.95;;;10.43;;
6255;SDS011;3161;48.794;9.784;2023-07-02T12:50:07;15.65;;;9.13;;
6255;SDS011;3161;48.794;9.784;2023-07-02T12:52:36;12.50;;;8.80;;
6255;SDS011;3161;48.794;9.784;2023-07-02T12:55:18;12.95;;;8.63;;
6255;SDS011;3161;48.794;9.784;2023-07-02T12:57:42;13.25;;;9.28;;
6255;SDS011;3161;48.794;9.784;2023-07-02T13:00:10;13.53;;;9.00;;
6255;SDS011;3161;48.794;9.784;2023-07-02T13:02:38;16.85;;;9.05;;
6255;SDS011;3161;48.794;9.784;2023-07-02T13:05:06;15.63;;;9.20;;
6255;SDS011;3161;48.794;9.784;2023-07-02T13:07:33;15.00;;;10.20;;
6255;SDS011;3161;48.794;9.784;2023-07-02T13:10:01;14.25;;;9.08;;
6255;SDS011;3161;48.794;9.784;2023-07-02T13:12:28;14.25;;;8.78;;
6255;SDS011;3161;48.794;9.784;2023-07-02T13:14:56;17.20;;;8.93;;
6255;SDS011;3161;48.794;9.784;2023-07-02T13:17:23;14.53;;;9.93;;
6255;SDS011;3161;48.794;9.784;2023-07-02T13:19:51;15.85;;;9.20;;
6255;SDS011;3161;48.794;9.784;2023-07-02T13:22:18;15.83;;;9.93;;
6255;SDS011;3161;48.794;9.784;2023-07-02T13:24:46;15.13;;;9.23;;
6255;SDS011;3161;48.794;9.784;2023-07-02T13:27:15;16.95;;;10.08;;
6255;SDS011;3161;48.794;9.784;2023-07-02T13:29:45;13.68;;;9.40;;
6255;SDS011;3161;48.794;9.784;2023-07-02T13:32:12;16.65;;;9.55;;
6255;SDS011;3161;48.794;9.784;2023-07-02T13:34:40;13.70;;;9.38;;
6255;SDS011;3161;48.794;9.784;2023-07-02T13:37:08;13.18;;;8.88;;
6255;SDS011;3161;48.794;9.784;2023-07-02T13:39:36;13.50;;;8.53;;
6255;SDS011;3161;48.794;9.784;2023-07-02T13:42:03;13.10;;;9.78;;
6255;SDS011;3161;48.794;9.784;2023-07-02T13:44:32;14.13;;;9.40;;
6255;SDS011;3161;48.794;9.784;2023-07-02T13:46:59;13.00;;;9.55;;
6255;SDS011;3161;48.794;9.784;2023-07-02T13:49:27;12.98;;;9.08;;
6255;SDS011;3161;48.794;9.784;2023-07-02T13:51:54;14.55;;;10.05;;
6255;SDS011;3161;48.794;9.784;2023-07-02T13:54:22;10.85;;;9.10;;
6255;SDS011;3161;48.794;9.784;2023-07-02T13:56:49;15.38;;;9.48;;
6255;SDS011;3161;48.794;9.784;2023-07-02T13:59:18;17.17;;;10.53;;
6255;SDS011;3161;48.794;9.784;2023-07-02T14:01:47;18.20;;;9.75;;
6255;SDS011;3161;48.794;9.784;2023-07-02T14:04:15;13.75;;;9.98;;
6255;SDS011;3161;48.794;9.784;2023-07-02T14:06:44;16.45;;;9.50;;
6255;SDS011;3161;48.794;9.784;2023-07-02T14:09:11;15.30;;;9.90;;
6255;SDS011;3161;48.794;9.784;2023-07-02T14:11:40;19.65;;;9.85;;
6255;SDS011;3161;48.794;9.784;2023-07-02T14:14:08;17.32;;;10.35;;
6255;SDS011;3161;48.794;9.784;2023-07-02T14:16:36;14.03;;;9.25;;
6255;SDS011;3161;48.794;9.784;2023-07-02T14:19:04;14.35;;;9.95;;
6255;SDS011;3161;48.794;9.784;2023-07-02T14:21:32;14.35;;;9.75;;
6255;SDS011;3161;48.794;9.784;2023-07-02T14:23:59;14.47;;;9.18;;
6255;SDS011;3161;48.794;9.784;2023-07-02T14:26:27;13.48;;;9.75;;
6255;SDS011;3161;48.794;9.784;2023-07-02T14:28:55;16.12;;;9.55;;
6255;SDS011;3161;48.794;9.784;2023-07-02T14:31:24;16.57;;;10.08;;
6255;SDS011;3161;48.794;9.784;2023-07-02T14:33:51;14.58;;;9.58;;
6255;SDS011;3161;48.794;9.784;2023-07-02T14:36:19;15.65;;;10.35;;
6255;SDS011;3161;48.794;9.784;2023-07-02T14:38:46;17.42;;;10.82;;
6255;SDS011;3161;48.794;9.784;2023-07-02T14:41:14;15.53;;;10.40;;
6255;SDS011;3161;48.794;9.784;2023-07-02T14:43:42;14.78;;;9.43;;
6255;SDS011;3161;48.794;9.784;2023-07-02T14:46:09;16.77;;;10.13;;
6255;SDS011;3161;48.794;9.784;2023-07-02T14:48:37;15.03;;;10.40;;
6255;SDS011;3161;48.794;9.784;2023-07-02T14:51:05;15.38;;;9.73;;
6255;SDS011;3161;48.794;9.784;2023-07-02T14:53:32;15.78;;;10.08;;
6255;SDS011;3161;48.794;9.784;2023-07-02T14:56:01;19.62;;;10.53;;
6255;SDS011;3161;48.794;9.784;2023-07-02T14:58:29;16.62;;;10.25;;
6255;SDS011;3161;48.794;9.784;2023-07-02T15:00:57;16.93;;;10.25;;
6255;SDS011;3161;48.794;9.784;2023-07-02T15:03:26;15.30;;;10.05;;
6255;SDS011;3161;48.794;9.784;2023-07-02T15:06:04;17.55;;;9.28;;
6255;SDS011;3161;48.794;9.784;2023-07-02T15:08:34;20.95;;;10.15;;
6255;SDS011;3161;48.794;9.784;2023-07-02T15:11:01;18.25;;;9.50;;
6255;SDS011;3161;48.794;9.784;2023-07-02T15:13:29;18.00;;;10.80;;
6255;SDS011;3161;48.794;9.784;2023-07-02T15:15:57;14.53;;;9.83;;
6255;SDS011;3161;48.794;9.784;2023-07-02T15:18:26;16.70;;;11.70;;
6255;SDS011;3161;48.794;9.784;2023-07-02T15:20:54;14.40;;;10.38;;